createdAt,value
2018-03-23T00:00:56.342Z,0.00
2018-03-23T00:01:56.242Z,0.00
2018-03-23T00:02:56.263Z,0.00
2018-03-23T00:03:56.283Z,0.00
2018-03-23T00:04:56.306Z,0.00
2018-03-23T00:05:56.314Z,0.00
2018-03-23T00:06:56.331Z,0.00
2018-03-23T00:07:56.370Z,0.00
2018-03-23T00:08:56.364Z,0.00
2018-03-23T00:09:56.379Z,0.00
2018-03-23T00:10:56.399Z,0.00
2018-03-23T00:11:56.421Z,0.00
2018-03-23T00:12:56.433Z,0.00
2018-03-23T00:13:56.466Z,0.00
2018-03-23T00:14:56.487Z,0.00
2018-03-23T00:15:56.497Z,0.00
2018-03-23T00:16:56.509Z,0.00
2018-03-23T00:17:56.518Z,0.00
2018-03-23T00:18:56.537Z,0.00
2018-03-23T00:19:56.554Z,0.00
2018-03-23T00:20:56.570Z,0.00
2018-03-23T00:21:56.608Z,0.00
2018-03-23T00:22:56.606Z,0.00
2018-03-23T00:23:56.624Z,0.00
2018-03-23T00:24:56.652Z,0.00
2018-03-23T00:25:56.674Z,0.00
2018-03-23T00:26:56.683Z,0.00
2018-03-23T00:27:56.730Z,0.00
2018-03-23T00:28:56.712Z,0.00
2018-03-23T00:29:56.761Z,0.00
2018-03-23T00:30:56.746Z,0.00
2018-03-23T00:31:56.768Z,0.00
2018-03-23T00:32:56.781Z,0.00
2018-03-23T00:33:56.797Z,0.00
2018-03-23T00:34:56.825Z,0.00
2018-03-23T00:35:56.849Z,0.00
2018-03-23T00:36:56.846Z,0.00
2018-03-23T00:37:56.864Z,0.00
2018-03-23T00:38:56.880Z,0.00
2018-03-23T00:39:56.899Z,0.00
2018-03-23T00:40:56.984Z,0.00
2018-03-23T00:41:56.935Z,0.00
2018-03-23T00:42:56.965Z,0.00
2018-03-23T00:43:56.969Z,0.00
2018-03-23T00:44:56.990Z,0.00
2018-03-23T00:45:57.006Z,0.00
2018-03-23T00:46:57.018Z,0.00
2018-03-23T00:47:57.038Z,0.00
2018-03-23T00:48:57.068Z,0.00
2018-03-23T00:49:57.073Z,0.00
2018-03-23T00:50:57.089Z,0.00
2018-03-23T00:51:57.108Z,0.00
2018-03-23T00:52:57.128Z,0.00
2018-03-23T00:53:57.191Z,0.00
2018-03-23T00:54:57.159Z,0.00
2018-03-23T00:55:57.176Z,0.00
2018-03-23T00:56:57.210Z,0.00
2018-03-23T00:57:57.208Z,0.00
2018-03-23T00:58:57.227Z,0.00
2018-03-23T00:59:57.283Z,0.00
2018-03-23T01:00:57.263Z,0.00
2018-03-23T01:01:57.282Z,0.00
2018-03-23T01:02:57.298Z,0.00
2018-03-23T01:03:57.326Z,0.00
2018-03-23T01:04:57.333Z,0.00
2018-03-23T01:05:57.349Z,0.00
2018-03-23T01:06:57.366Z,0.00
2018-03-23T01:07:57.434Z,0.00
2018-03-23T01:08:57.424Z,0.00
2018-03-23T01:09:57.491Z,0.00
2018-03-23T01:10:57.439Z,0.00
2018-03-23T01:11:57.456Z,0.00
2018-03-23T01:12:57.483Z,0.00
2018-03-23T01:13:57.490Z,0.00
2018-03-23T01:14:57.510Z,0.00
2018-03-23T01:15:57.540Z,0.00
2018-03-23T01:16:57.548Z,0.00
2018-03-23T01:17:57.560Z,0.00
2018-03-23T01:18:57.610Z,0.00
2018-03-23T01:19:57.594Z,0.00
2018-03-23T01:20:57.667Z,0.00
2018-03-23T01:21:57.632Z,0.00
2018-03-23T01:22:57.646Z,0.00
2018-03-23T01:23:57.664Z,0.00
2018-03-23T01:24:57.726Z,0.00
2018-03-23T01:25:57.697Z,0.00
2018-03-23T01:26:57.773Z,0.00
2018-03-23T01:27:57.736Z,0.00
2018-03-23T01:28:57.752Z,0.00
2018-03-23T01:29:57.767Z,0.00
2018-03-23T01:30:57.788Z,0.00
2018-03-23T01:31:57.808Z,0.00
2018-03-23T01:32:57.822Z,0.00
2018-03-23T01:33:57.839Z,0.00
2018-03-23T01:34:57.908Z,0.00
2018-03-23T01:35:57.867Z,0.00
2018-03-23T01:36:57.887Z,0.00
2018-03-23T01:37:57.909Z,0.00
2018-03-23T01:38:57.920Z,0.00
2018-03-23T01:39:57.939Z,0.00
2018-03-23T01:40:57.971Z,0.00
2018-03-23T01:41:57.976Z,0.00
2018-03-23T01:42:57.997Z,0.00
2018-03-23T01:43:58.011Z,0.00
2018-03-23T01:44:58.028Z,0.00
2018-03-23T01:45:58.047Z,0.00
2018-03-23T01:46:58.057Z,0.00
2018-03-23T01:47:58.124Z,0.00
2018-03-23T01:48:58.103Z,0.00
2018-03-23T01:49:58.118Z,0.00
2018-03-23T01:50:58.128Z,0.00
2018-03-23T01:51:58.169Z,0.00
2018-03-23T01:52:58.168Z,0.00
2018-03-23T01:53:58.183Z,0.00
2018-03-23T01:54:58.198Z,0.00
2018-03-23T01:55:58.214Z,0.00
2018-03-23T01:56:58.232Z,0.00
2018-03-23T01:57:58.250Z,0.00
2018-03-23T01:58:58.298Z,0.00
2018-03-23T01:59:58.283Z,0.00
2018-03-23T02:00:58.306Z,0.00
2018-03-23T02:01:58.322Z,0.00
2018-03-23T02:02:58.365Z,0.00
2018-03-23T02:03:58.355Z,0.00
2018-03-23T02:04:58.371Z,0.00
2018-03-23T02:05:58.388Z,0.00
2018-03-23T02:07:05.248Z,0.00
2018-03-23T02:07:58.424Z,0.00
2018-03-23T02:08:58.439Z,0.00
2018-03-23T02:09:58.461Z,0.00
2018-03-23T02:10:58.476Z,0.00
2018-03-23T02:11:58.491Z,0.00
2018-03-23T02:12:58.524Z,0.00
2018-03-23T02:13:58.533Z,0.00
2018-03-23T02:14:58.546Z,0.00
2018-03-23T02:15:58.561Z,0.00
2018-03-23T02:16:58.580Z,0.00
2018-03-23T02:17:58.602Z,0.00
2018-03-23T02:18:58.612Z,0.00
2018-03-23T02:19:58.632Z,0.00
2018-03-23T02:20:58.658Z,0.00
2018-03-23T02:21:58.662Z,0.00
2018-03-23T02:22:58.685Z,0.00
2018-03-23T02:23:58.707Z,0.00
2018-03-23T02:24:58.716Z,0.00
2018-03-23T02:25:58.750Z,0.00
2018-03-23T02:26:58.763Z,0.00
2018-03-23T02:27:58.770Z,0.00
2018-03-23T02:28:58.802Z,0.00
2018-03-23T02:29:58.802Z,0.00
2018-03-23T02:30:58.818Z,0.00
2018-03-23T02:31:58.834Z,0.00
2018-03-23T02:32:58.852Z,0.00
2018-03-23T02:33:58.896Z,0.00
2018-03-23T02:34:58.888Z,0.00
2018-03-23T02:35:58.904Z,0.00
2018-03-23T02:36:58.928Z,0.00
2018-03-23T02:37:58.940Z,0.00
2018-03-23T02:38:58.955Z,0.00
2018-03-23T02:39:58.977Z,0.00
2018-03-23T02:40:58.991Z,0.00
2018-03-23T02:41:59.076Z,0.00
2018-03-23T02:42:59.049Z,0.00
2018-03-23T02:43:59.045Z,0.00
2018-03-23T02:44:59.067Z,0.00
2018-03-23T02:45:59.081Z,0.00
2018-03-23T02:46:59.091Z,0.00
2018-03-23T02:47:59.115Z,0.00
2018-03-23T02:48:59.152Z,0.00
2018-03-23T02:49:59.148Z,0.00
2018-03-23T02:50:59.161Z,0.00
2018-03-23T02:51:59.177Z,0.00
2018-03-23T02:52:59.194Z,0.00
2018-03-23T02:53:59.209Z,0.00
2018-03-23T02:54:59.353Z,0.00
2018-03-23T02:55:59.249Z,0.00
2018-03-23T02:56:59.315Z,0.00
2018-03-23T02:57:59.284Z,0.00
2018-03-23T02:58:59.316Z,0.00
2018-03-23T02:59:59.318Z,0.00
2018-03-23T03:00:59.338Z,0.00
2018-03-23T03:01:59.390Z,0.00
2018-03-23T03:02:59.374Z,0.00
2018-03-23T03:03:59.385Z,0.00
2018-03-23T03:04:59.402Z,0.00
2018-03-23T05:05:01.694Z,0.00
2018-03-23T05:06:01.679Z,0.00
2018-03-23T05:07:54.580Z,0.00
2018-03-23T05:08:54.581Z,0.00
2018-03-23T05:10:47.533Z,0.00
2018-03-23T05:11:47.498Z,4.00
2018-03-23T05:13:40.413Z,0.00
2018-03-23T05:14:40.421Z,0.00
2018-03-23T05:16:33.360Z,4.00
2018-03-23T05:17:33.344Z,0.00
2018-03-23T05:19:26.287Z,8.00
2018-03-23T05:20:26.276Z,4.00
2018-03-23T05:22:19.723Z,8.00
2018-03-23T05:23:19.708Z,8.00
2018-03-23T05:25:12.649Z,12.00
2018-03-23T05:26:12.650Z,12.00
2018-03-23T05:28:05.591Z,16.00
2018-03-23T05:29:05.568Z,20.00
2018-03-23T05:30:58.512Z,28.00
2018-03-23T05:31:58.516Z,28.00
2018-03-23T05:33:51.427Z,32.00
2018-03-23T05:34:51.427Z,36.00
2018-03-23T05:36:44.383Z,40.00
2018-03-23T05:37:44.372Z,48.00
2018-03-23T05:39:37.298Z,56.00
2018-03-23T05:40:37.313Z,64.00
2018-03-23T05:42:30.248Z,76.00
2018-03-23T05:43:30.246Z,88.00
2018-03-23T05:45:23.682Z,100.00
2018-03-23T05:46:23.736Z,108.00
2018-03-23T05:48:16.601Z,124.00
2018-03-23T05:49:16.617Z,136.00
2018-03-23T05:51:10.072Z,160.00
2018-03-23T05:52:10.039Z,168.00
2018-03-23T05:54:03.075Z,176.00
2018-03-23T05:55:02.991Z,176.00
2018-03-23T05:56:55.915Z,180.00
2018-03-23T05:57:55.914Z,192.00
2018-03-23T05:59:48.863Z,208.00
2018-03-23T06:00:48.850Z,204.00
2018-03-23T06:02:41.872Z,200.00
2018-03-23T06:03:41.830Z,204.00
2018-03-23T06:05:34.883Z,220.00
2018-03-23T06:06:34.841Z,228.00
2018-03-23T06:08:27.836Z,252.00
2018-03-23T06:09:27.756Z,268.00
2018-03-23T06:11:20.712Z,284.00
2018-03-23T06:12:20.695Z,288.00
2018-03-23T06:14:13.644Z,288.00
2018-03-23T06:15:13.642Z,280.00
2018-03-23T06:17:06.592Z,288.00
2018-03-23T06:18:06.589Z,300.00
2018-03-23T06:19:59.539Z,324.00
2018-03-23T06:20:59.542Z,344.00
2018-03-23T06:22:52.521Z,388.00
2018-03-23T06:23:52.504Z,416.00
2018-03-23T06:25:45.478Z,484.00
2018-03-23T06:26:45.452Z,504.00
2018-03-23T06:28:38.398Z,520.00
2018-03-23T06:29:38.416Z,524.00
2018-03-23T06:31:31.376Z,556.00
2018-03-23T06:32:31.364Z,572.00
2018-03-23T06:34:24.845Z,616.00
2018-03-23T06:35:24.833Z,636.00
2018-03-23T06:37:17.867Z,652.00
2018-03-23T06:38:17.858Z,676.00
2018-03-23T06:40:10.777Z,728.00
2018-03-23T06:41:10.788Z,756.00
2018-03-23T06:43:03.753Z,784.00
2018-03-23T06:44:03.721Z,840.00
2018-03-23T06:45:56.653Z,948.00
2018-03-23T06:46:56.707Z,972.00
2018-03-23T06:48:49.614Z,984.00
2018-03-23T06:49:49.604Z,988.00
2018-03-23T06:51:42.544Z,1048.00
2018-03-23T06:52:42.538Z,1064.00
2018-03-23T06:54:35.467Z,1080.00
2018-03-23T06:55:35.482Z,1104.00
2018-03-23T06:57:28.421Z,1140.00
2018-03-23T06:58:28.409Z,1164.00
2018-03-23T07:00:21.339Z,1244.00
2018-03-23T07:01:21.349Z,1284.00
2018-03-23T07:03:14.293Z,1380.00
2018-03-23T07:04:14.283Z,1452.00
2018-03-23T07:06:07.216Z,1596.00
2018-03-23T07:07:07.217Z,1688.00
2018-03-23T07:09:00.179Z,1884.00
2018-03-23T07:10:00.169Z,2000.00
2018-03-23T07:11:53.197Z,2192.00
2018-03-23T07:12:53.190Z,2244.00
2018-03-23T07:14:46.145Z,2284.00
2018-03-23T07:15:46.144Z,2408.00
2018-03-23T07:17:39.111Z,2540.00
2018-03-23T07:18:39.155Z,2544.00
2018-03-23T07:20:32.066Z,2520.00
2018-03-23T07:21:32.067Z,2524.00
2018-03-23T07:23:25.010Z,2644.00
2018-03-23T07:24:25.003Z,2736.00
2018-03-23T07:26:18.044Z,3008.00
2018-03-23T07:27:18.064Z,3212.00
2018-03-23T07:29:11.033Z,3528.00
2018-03-23T07:30:11.011Z,3696.00
2018-03-23T07:32:04.020Z,3648.00
2018-03-23T07:33:03.962Z,3568.00
2018-03-23T07:34:56.905Z,3548.00
2018-03-23T07:35:56.929Z,3624.00
2018-03-23T07:37:49.915Z,3660.00
2018-03-23T07:38:49.848Z,3852.00
2018-03-23T07:40:42.815Z,4480.00
2018-03-23T07:41:42.825Z,4784.00
2018-03-23T07:43:35.838Z,5124.00
2018-03-23T07:44:35.780Z,5212.00
2018-03-23T07:46:28.760Z,5288.00
2018-03-23T07:47:28.757Z,5328.00
2018-03-23T07:49:21.693Z,5260.00
2018-03-23T07:50:21.686Z,5200.00
2018-03-23T07:52:14.681Z,4988.00
2018-03-23T07:53:14.639Z,4900.00
2018-03-23T07:55:07.588Z,4988.00
2018-03-23T07:56:07.586Z,5044.00
2018-03-23T07:58:00.693Z,5100.00
2018-03-23T07:59:00.646Z,5072.00
2018-03-23T08:00:53.582Z,5076.00
2018-03-23T08:01:53.597Z,5180.00
2018-03-23T08:03:46.557Z,5356.00
2018-03-23T08:04:46.552Z,5452.00
2018-03-23T08:06:39.518Z,5568.00
2018-03-23T08:07:39.500Z,5616.00
2018-03-23T08:09:32.536Z,5648.00
2018-03-23T08:10:32.455Z,5660.00
2018-03-23T08:12:25.416Z,5756.00
2018-03-23T08:13:25.407Z,5936.00
2018-03-23T08:15:19.091Z,6032.00
2018-03-23T08:16:19.106Z,6036.00
2018-03-23T08:18:12.142Z,6088.00
2018-03-23T08:19:12.376Z,6104.00
2018-03-23T08:21:05.097Z,5856.00
2018-03-23T08:22:05.095Z,5852.00
2018-03-23T08:23:58.182Z,5824.00
2018-03-23T08:24:58.173Z,5680.00
2018-03-23T08:26:51.184Z,5440.00
2018-03-23T08:27:51.201Z,5312.00
2018-03-23T08:29:44.162Z,5164.00
2018-03-23T08:30:44.152Z,5224.00
2018-03-23T08:32:37.112Z,5208.00
2018-03-23T08:33:37.119Z,5108.00
2018-03-23T08:35:30.044Z,5180.00
2018-03-23T08:36:30.065Z,5216.00
2018-03-23T08:38:23.284Z,5432.00
2018-03-23T08:39:23.191Z,5648.00
2018-03-23T08:41:16.740Z,5912.00
2018-03-23T08:42:16.614Z,5912.00
2018-03-23T08:44:10.323Z,5924.00
2018-03-23T08:45:11.277Z,5876.00
2018-03-23T08:47:03.201Z,5752.00
2018-03-23T08:48:02.968Z,5508.00
2018-03-23T08:49:56.263Z,5168.00
2018-03-23T08:50:56.142Z,5100.00
2018-03-23T08:52:49.432Z,5068.00
2018-03-23T08:53:49.385Z,5112.00
2018-03-23T08:55:42.288Z,5396.00
2018-03-23T08:56:42.307Z,5572.00
2018-03-23T08:58:35.376Z,5624.00
2018-03-23T08:59:35.333Z,5756.00
2018-03-23T09:01:29.577Z,5460.00
2018-03-23T09:02:28.797Z,5472.00
2018-03-23T09:03:28.271Z,5504.00
2018-03-23T09:04:28.375Z,5560.00
2018-03-23T09:05:28.332Z,5516.00
2018-03-23T09:06:28.389Z,5424.00
2018-03-23T09:07:28.354Z,5316.00
2018-03-23T09:08:28.367Z,5104.00
2018-03-23T09:09:28.381Z,4440.00
2018-03-23T09:10:28.472Z,4156.00
2018-03-23T09:11:28.468Z,4064.00
2018-03-23T09:12:28.536Z,4080.00
2018-03-23T09:13:28.534Z,4212.00
2018-03-23T09:14:28.701Z,4636.00
2018-03-23T09:15:28.504Z,5032.00
2018-03-23T09:16:28.518Z,4920.00
2018-03-23T09:17:28.566Z,4648.00
2018-03-23T09:18:28.673Z,4540.00
2018-03-23T09:20:30.013Z,4444.00
2018-03-23T09:21:28.655Z,4720.00
2018-03-23T09:22:28.645Z,5040.00
2018-03-23T09:23:28.667Z,5268.00
2018-03-23T09:24:28.702Z,5012.00
2018-03-23T09:25:28.817Z,4476.00
2018-03-23T09:26:28.740Z,3968.00
2018-03-23T09:27:28.806Z,4244.00
2018-03-23T09:28:28.801Z,4060.00
2018-03-23T09:29:28.845Z,3712.00
2018-03-23T09:30:28.798Z,3328.00
2018-03-23T09:31:28.840Z,3076.00
2018-03-23T09:32:28.890Z,2752.00
2018-03-23T09:33:28.935Z,2376.00
2018-03-23T09:34:28.875Z,2088.00
2018-03-23T09:35:28.907Z,1856.00
2018-03-23T09:36:28.932Z,1704.00
2018-03-23T09:37:28.935Z,1696.00
2018-03-23T09:38:28.959Z,1636.00
2018-03-23T09:39:29.053Z,1552.00
2018-03-23T09:40:28.995Z,1516.00
2018-03-23T09:41:29.117Z,1508.00
2018-03-23T09:42:29.176Z,1512.00
2018-03-23T09:43:29.124Z,1632.00
2018-03-23T09:44:29.070Z,1680.00
2018-03-23T09:45:29.091Z,1596.00
2018-03-23T09:46:29.110Z,1580.00
2018-03-23T09:47:29.261Z,1592.00
2018-03-23T09:48:29.153Z,1592.00
2018-03-23T09:49:29.168Z,1600.00
2018-03-23T09:50:29.190Z,1688.00
2018-03-23T09:51:29.230Z,1968.00
2018-03-23T09:52:29.225Z,2368.00
2018-03-23T09:53:29.255Z,2512.00
2018-03-23T09:54:29.330Z,2576.00
2018-03-23T09:55:29.294Z,2976.00
2018-03-23T09:56:29.313Z,3388.00
2018-03-23T09:57:29.321Z,3408.00
2018-03-23T09:58:29.350Z,3188.00
2018-03-23T09:59:29.369Z,2956.00
2018-03-23T10:00:29.418Z,2992.00
2018-03-23T10:01:29.478Z,2852.00
2018-03-23T10:02:29.515Z,2520.00
2018-03-23T10:03:29.451Z,2428.00
2018-03-23T10:04:29.476Z,2392.00
2018-03-23T10:05:29.551Z,2196.00
2018-03-23T10:06:29.499Z,2340.00
2018-03-23T10:07:29.519Z,2812.00
2018-03-23T10:08:29.532Z,3228.00
2018-03-23T10:09:29.564Z,3200.00
2018-03-23T10:10:29.574Z,2972.00
2018-03-23T10:11:29.598Z,2680.00
2018-03-23T10:12:29.612Z,2456.00
2018-03-23T10:13:30.895Z,2224.00
2018-03-23T10:14:29.646Z,2052.00
2018-03-23T10:15:30.039Z,2032.00
2018-03-23T10:16:29.736Z,2152.00
2018-03-23T10:17:29.758Z,2248.00
2018-03-23T10:18:29.787Z,2272.00
2018-03-23T10:19:29.812Z,2200.00
2018-03-23T10:20:29.821Z,2128.00
2018-03-23T10:21:29.788Z,2092.00
2018-03-23T10:22:29.817Z,2044.00
2018-03-23T10:23:29.879Z,2040.00
2018-03-23T10:24:29.843Z,2104.00
2018-03-23T10:25:29.865Z,2012.00
2018-03-23T10:26:29.882Z,1980.00
2018-03-23T10:27:29.884Z,2028.00
2018-03-23T10:28:29.905Z,2072.00
2018-03-23T10:29:29.928Z,2088.00
2018-03-23T10:30:29.949Z,2164.00
2018-03-23T10:31:29.982Z,2324.00
2018-03-23T10:32:29.978Z,2584.00
2018-03-23T10:33:30.003Z,2628.00
2018-03-23T10:34:30.019Z,2776.00
2018-03-23T10:35:30.044Z,2728.00
2018-03-23T10:36:30.056Z,2632.00
2018-03-23T10:37:30.078Z,2536.00
2018-03-23T10:38:30.113Z,2460.00
2018-03-23T10:39:30.110Z,2440.00
2018-03-23T10:40:30.127Z,2372.00
2018-03-23T10:41:30.147Z,2348.00
2018-03-23T10:42:30.164Z,2404.00
2018-03-23T10:43:30.191Z,2432.00
2018-03-23T10:44:30.205Z,2476.00
2018-03-23T10:45:30.220Z,2492.00
2018-03-23T10:46:30.241Z,2536.00
2018-03-23T10:47:30.263Z,2600.00
2018-03-23T10:48:30.277Z,2636.00
2018-03-23T10:49:30.295Z,2648.00
2018-03-23T10:50:30.325Z,2640.00
2018-03-23T10:51:30.357Z,2624.00
2018-03-23T10:52:30.359Z,2584.00
2018-03-23T10:53:30.380Z,2632.00
2018-03-23T10:54:30.397Z,2600.00
2018-03-23T10:55:30.411Z,2556.00
2018-03-23T10:56:30.434Z,2600.00
2018-03-23T10:57:30.487Z,2620.00
2018-03-23T10:58:30.471Z,2608.00
2018-03-23T10:59:30.486Z,2616.00
2018-03-23T11:00:30.501Z,2736.00
2018-03-23T11:01:30.528Z,2708.00
2018-03-23T11:02:30.544Z,2656.00
2018-03-23T11:03:30.562Z,2660.00
2018-03-23T11:04:30.572Z,2704.00
2018-03-23T11:05:30.591Z,2660.00
2018-03-23T11:06:30.615Z,2620.00
2018-03-23T11:07:30.663Z,2680.00
2018-03-23T11:08:30.646Z,2732.00
2018-03-23T11:09:30.679Z,2768.00
2018-03-23T11:10:30.695Z,2784.00
2018-03-23T11:11:30.713Z,2720.00
2018-03-23T11:12:30.729Z,2584.00
2018-03-23T11:13:30.744Z,2528.00
2018-03-23T11:14:30.763Z,2516.00
2018-03-23T11:15:30.777Z,2528.00
2018-03-23T11:16:30.798Z,2560.00
2018-03-23T11:17:30.818Z,2568.00
2018-03-23T11:18:30.834Z,2656.00
2018-03-23T11:19:30.852Z,2748.00
2018-03-23T11:20:30.903Z,2760.00
2018-03-23T11:21:30.890Z,2804.00
2018-03-23T11:22:30.912Z,2604.00
2018-03-23T11:23:30.931Z,2404.00
2018-03-23T11:24:30.997Z,2452.00
2018-03-23T11:25:30.963Z,2632.00
2018-03-23T11:26:30.987Z,2520.00
2018-03-23T11:27:31.001Z,2436.00
2018-03-23T11:28:31.025Z,2456.00
2018-03-23T11:29:31.043Z,2520.00
2018-03-23T11:30:31.066Z,2656.00
2018-03-23T11:31:31.079Z,3020.00
2018-03-23T11:32:31.088Z,3280.00
2018-03-23T11:33:31.107Z,3236.00
2018-03-23T11:34:31.131Z,3068.00
2018-03-23T11:35:31.147Z,3076.00
2018-03-23T11:36:31.206Z,3120.00
2018-03-23T11:37:31.188Z,3160.00
2018-03-23T11:38:31.203Z,3240.00
2018-03-23T11:39:31.220Z,3556.00
2018-03-23T11:40:31.238Z,3700.00
2018-03-23T11:41:31.264Z,3936.00
2018-03-23T11:42:31.277Z,3916.00
2018-03-23T11:43:31.293Z,3876.00
2018-03-23T11:44:31.313Z,3812.00
2018-03-23T11:45:31.331Z,3552.00
2018-03-23T11:46:31.350Z,3412.00
2018-03-23T11:47:31.378Z,3364.00
2018-03-23T11:48:31.405Z,3364.00
2018-03-23T11:49:31.408Z,3268.00
2018-03-23T11:50:31.425Z,3132.00
2018-03-23T11:51:31.442Z,3132.00
2018-03-23T11:52:31.465Z,2964.00
2018-03-23T11:53:31.481Z,2856.00
2018-03-23T11:54:31.500Z,2744.00
2018-03-23T11:55:31.522Z,2616.00
2018-03-23T11:56:31.537Z,2668.00
2018-03-23T11:57:31.556Z,2720.00
2018-03-23T11:58:31.574Z,2688.00
2018-03-23T11:59:31.597Z,2700.00
2018-03-23T12:00:31.612Z,2804.00
2018-03-23T12:01:31.628Z,3148.00
2018-03-23T12:02:31.649Z,3312.00
2018-03-23T12:03:31.666Z,3524.00
2018-03-23T12:04:31.685Z,3840.00
2018-03-23T12:05:31.702Z,4232.00
2018-03-23T12:06:31.734Z,4016.00
2018-03-23T12:07:31.781Z,3512.00
2018-03-23T12:08:31.764Z,3188.00
2018-03-23T12:09:31.783Z,3020.00
2018-03-23T12:10:31.803Z,3084.00
2018-03-23T12:11:31.823Z,3092.00
2018-03-23T12:12:31.834Z,3012.00
2018-03-23T12:13:31.857Z,2856.00
2018-03-23T12:14:31.874Z,2740.00
2018-03-23T12:15:31.894Z,2620.00
2018-03-23T12:16:31.910Z,2520.00
2018-03-23T12:17:31.929Z,2484.00
2018-03-23T12:18:31.947Z,2492.00
2018-03-23T12:19:31.967Z,2364.00
2018-03-23T12:20:31.985Z,2316.00
2018-03-23T12:21:32.064Z,2424.00
2018-03-23T12:22:32.031Z,2584.00
2018-03-23T12:23:32.042Z,2844.00
2018-03-23T12:24:32.062Z,3112.00
2018-03-23T12:25:32.078Z,3432.00
2018-03-23T12:26:32.121Z,3492.00
2018-03-23T12:27:32.144Z,3380.00
2018-03-23T12:28:32.133Z,3120.00
2018-03-23T12:29:32.150Z,2948.00
2018-03-23T12:30:32.169Z,2900.00
2018-03-23T12:31:32.195Z,2868.00
2018-03-23T12:32:32.283Z,2728.00
2018-03-23T12:33:32.229Z,2592.00
2018-03-23T12:34:32.304Z,2520.00
2018-03-23T12:35:32.363Z,2608.00
2018-03-23T12:36:32.285Z,2836.00
2018-03-23T12:37:32.303Z,2824.00
2018-03-23T12:38:32.350Z,2808.00
2018-03-23T12:39:32.338Z,2784.00
2018-03-23T12:40:32.354Z,2776.00
2018-03-23T12:41:32.372Z,2688.00
2018-03-23T12:42:32.396Z,2680.00
2018-03-23T12:43:32.411Z,2716.00
2018-03-23T12:44:32.436Z,2696.00
2018-03-23T12:45:32.504Z,2652.00
2018-03-23T12:46:32.468Z,2628.00
2018-03-23T12:47:32.486Z,2656.00
2018-03-23T12:48:32.504Z,2652.00
2018-03-23T12:49:32.521Z,2672.00
2018-03-23T12:50:32.541Z,2596.00
2018-03-23T12:51:32.585Z,2520.00
2018-03-23T12:52:32.577Z,2528.00
2018-03-23T12:53:32.596Z,2668.00
2018-03-23T12:54:32.615Z,2520.00
2018-03-23T12:55:32.631Z,2428.00
2018-03-23T12:56:32.657Z,2592.00
2018-03-23T12:57:32.669Z,2740.00
2018-03-23T12:58:32.689Z,2724.00
2018-03-23T12:59:32.705Z,2692.00
2018-03-23T13:00:32.722Z,2568.00
2018-03-23T13:01:32.743Z,2476.00
2018-03-23T13:02:32.760Z,2520.00
2018-03-23T13:03:32.792Z,2408.00
2018-03-23T13:04:32.797Z,2500.00
2018-03-23T13:05:32.822Z,2396.00
2018-03-23T13:06:32.834Z,2292.00
2018-03-23T13:07:32.856Z,2276.00
2018-03-23T13:08:32.871Z,2180.00
2018-03-23T13:09:32.889Z,2096.00
2018-03-23T13:10:32.907Z,2044.00
2018-03-23T13:11:32.929Z,1944.00
2018-03-23T13:12:32.953Z,1944.00
2018-03-23T13:13:32.962Z,1948.00
2018-03-23T13:14:32.980Z,1956.00
2018-03-23T13:15:33.002Z,1860.00
2018-03-23T13:16:33.024Z,1792.00
2018-03-23T13:17:33.038Z,1780.00
2018-03-23T13:18:33.056Z,1784.00
2018-03-23T13:19:33.073Z,1804.00
2018-03-23T13:20:33.089Z,1792.00
2018-03-23T13:21:33.113Z,1840.00
2018-03-23T13:22:33.150Z,1880.00
2018-03-23T13:23:33.148Z,1908.00
2018-03-23T13:24:33.167Z,1952.00
2018-03-23T13:25:33.192Z,2024.00
2018-03-23T13:26:33.210Z,2156.00
2018-03-23T13:27:33.220Z,2244.00
2018-03-23T13:28:33.249Z,2128.00
2018-03-23T13:29:33.256Z,1960.00
2018-03-23T13:30:33.280Z,1916.00
2018-03-23T13:31:33.296Z,1884.00
2018-03-23T13:32:33.313Z,1784.00
2018-03-23T13:33:33.337Z,1748.00
2018-03-23T13:34:33.348Z,1704.00
2018-03-23T13:35:33.386Z,1716.00
2018-03-23T13:36:33.416Z,1688.00
2018-03-23T13:37:33.422Z,1712.00
2018-03-23T13:38:33.426Z,1664.00
2018-03-23T13:39:33.442Z,1624.00
2018-03-23T13:40:33.460Z,1684.00
2018-03-23T13:41:33.474Z,1660.00
2018-03-23T13:42:33.499Z,1732.00
2018-03-23T13:43:33.512Z,1928.00
2018-03-23T13:44:33.531Z,2044.00
2018-03-23T13:45:33.548Z,2068.00
2018-03-23T13:46:33.571Z,2168.00
2018-03-23T13:47:33.590Z,2216.00
2018-03-23T13:48:33.603Z,2448.00
2018-03-23T13:49:33.664Z,2512.00
2018-03-23T13:50:33.641Z,2468.00
2018-03-23T13:51:33.664Z,2372.00
2018-03-23T13:52:33.676Z,2372.00
2018-03-23T13:53:33.694Z,2280.00
2018-03-23T13:54:33.716Z,2224.00
2018-03-23T13:55:33.736Z,2172.00
2018-03-23T13:56:33.751Z,2188.00
2018-03-23T13:57:33.767Z,2116.00
2018-03-23T13:58:33.785Z,2048.00
2018-03-23T13:59:33.804Z,2092.00
2018-03-23T14:00:33.823Z,2196.00
2018-03-23T14:01:33.840Z,2288.00
2018-03-23T14:02:33.876Z,2372.00
2018-03-23T14:03:33.881Z,2520.00
2018-03-23T14:04:33.917Z,2708.00
2018-03-23T14:05:33.913Z,2808.00
2018-03-23T14:06:33.935Z,2868.00
2018-03-23T14:07:33.957Z,2896.00
2018-03-23T14:08:33.968Z,2980.00
2018-03-23T14:09:33.987Z,2964.00
2018-03-23T14:10:34.007Z,3224.00
2018-03-23T14:11:34.028Z,3324.00
2018-03-23T14:12:34.047Z,3788.00
2018-03-23T14:13:34.075Z,3900.00
2018-03-23T14:14:34.081Z,4156.00
2018-03-23T14:15:34.097Z,4128.00
2018-03-23T14:16:34.114Z,4116.00
2018-03-23T14:17:34.136Z,4088.00
2018-03-23T14:18:34.151Z,3964.00
2018-03-23T14:19:34.169Z,3816.00
2018-03-23T14:20:34.192Z,3760.00
2018-03-23T14:21:34.207Z,3792.00
2018-03-23T14:22:34.229Z,3832.00
2018-03-23T14:23:34.249Z,3876.00
2018-03-23T14:24:34.274Z,3848.00
2018-03-23T14:25:34.284Z,3800.00
2018-03-23T14:26:34.307Z,3812.00
2018-03-23T14:27:34.322Z,3792.00
2018-03-23T14:28:34.342Z,3740.00
2018-03-23T14:29:34.357Z,3684.00
2018-03-23T14:30:34.378Z,3656.00
2018-03-23T14:31:34.393Z,3592.00
2018-03-23T14:32:34.430Z,3516.00
2018-03-23T14:33:34.433Z,3424.00
2018-03-23T14:34:34.453Z,3308.00
2018-03-23T14:35:34.469Z,3208.00
2018-03-23T14:36:34.488Z,3100.00
2018-03-23T14:37:34.506Z,2996.00
2018-03-23T14:38:34.529Z,2944.00
2018-03-23T14:39:34.544Z,2908.00
2018-03-23T14:40:34.582Z,2924.00
2018-03-23T14:41:34.587Z,2948.00
2018-03-23T14:42:34.602Z,3024.00
2018-03-23T14:43:34.622Z,3040.00
2018-03-23T14:44:34.640Z,3108.00
2018-03-23T14:45:34.659Z,3212.00
2018-03-23T14:46:34.682Z,3332.00
2018-03-23T14:47:34.698Z,3436.00
2018-03-23T14:48:34.717Z,3484.00
2018-03-23T14:49:34.736Z,3588.00
2018-03-23T14:50:34.758Z,3600.00
2018-03-23T14:51:34.776Z,3612.00
2018-03-23T14:52:34.789Z,3576.00
2018-03-23T14:53:34.816Z,3548.00
2018-03-23T14:54:34.829Z,3568.00
2018-03-23T14:55:34.850Z,3652.00
2018-03-23T14:56:34.867Z,3704.00
2018-03-23T14:57:34.900Z,3668.00
2018-03-23T14:58:34.913Z,3600.00
2018-03-23T14:59:34.942Z,3540.00
2018-03-23T15:00:34.948Z,3468.00
2018-03-23T15:01:34.960Z,3372.00
2018-03-23T15:02:34.980Z,3268.00
2018-03-23T15:03:35.000Z,3192.00
2018-03-23T15:04:35.020Z,3168.00
2018-03-23T15:05:35.037Z,3136.00
2018-03-23T15:06:35.064Z,3096.00
2018-03-23T15:07:35.077Z,3040.00
2018-03-23T15:08:35.096Z,2948.00
2018-03-23T15:09:35.123Z,2884.00
2018-03-23T15:10:35.140Z,2828.00
2018-03-23T15:11:35.152Z,2752.00
2018-03-23T15:12:35.178Z,2664.00
2018-03-23T15:13:35.192Z,2580.00
2018-03-23T15:14:35.213Z,2532.00
2018-03-23T15:15:35.233Z,2496.00
2018-03-23T15:16:35.246Z,2424.00
2018-03-23T15:17:35.266Z,2340.00
2018-03-23T15:18:35.285Z,2304.00
2018-03-23T15:19:35.305Z,2280.00
2018-03-23T15:20:35.356Z,2240.00
2018-03-23T15:21:35.343Z,2180.00
2018-03-23T15:22:35.371Z,2076.00
2018-03-23T15:23:35.383Z,1984.00
2018-03-23T15:24:35.400Z,1936.00
2018-03-23T15:25:35.417Z,1912.00
2018-03-23T15:26:35.443Z,1900.00
2018-03-23T15:27:35.459Z,1928.00
2018-03-23T15:28:35.481Z,1976.00
2018-03-23T15:29:35.496Z,2040.00
2018-03-23T15:30:35.515Z,2076.00
2018-03-23T15:31:35.547Z,2072.00
2018-03-23T15:32:35.555Z,1996.00
2018-03-23T15:33:35.574Z,1904.00
2018-03-23T15:34:35.632Z,1848.00
2018-03-23T15:35:35.609Z,1852.00
2018-03-23T15:36:35.628Z,1884.00
2018-03-23T15:37:35.646Z,1920.00
2018-03-23T15:38:35.672Z,1964.00
2018-03-23T15:39:35.726Z,1980.00